createdAt,value
2019-05-05T00:01:55.373Z,98608.81
2019-05-05T00:04:46.956Z,98611.01
2019-05-05T00:07:22.013Z,98609.62
2019-05-05T00:09:51.729Z,98626.59
2019-05-05T00:12:50.038Z,98626.34
2019-05-05T00:15:41.827Z,98616.56
2019-05-05T00:18:11.723Z,98619.38
2019-05-05T00:20:40.378Z,98614.67
2019-05-05T00:23:09.742Z,98621.10
2019-05-05T00:25:37.890Z,98621.10
2019-05-05T00:28:07.461Z,98624.08
2019-05-05T00:30:36.721Z,98631.00
2019-05-05T00:33:06.037Z,98632.77
2019-05-05T00:35:35.329Z,98641.66
2019-05-05T00:38:05.676Z,98636.25
2019-05-05T00:40:35.262Z,98634.16
2019-05-05T00:43:05.367Z,98634.89
2019-05-05T00:45:36.295Z,98636.27
2019-05-05T00:48:15.260Z,98636.27
2019-05-05T00:50:44.991Z,98645.26
2019-05-05T00:53:14.692Z,98641.81
2019-05-05T00:55:44.603Z,98653.63
2019-05-05T00:58:14.562Z,98653.63
2019-05-05T01:00:49.899Z,98650.78
2019-05-05T01:03:21.080Z,98652.59
2019-05-05T01:05:58.491Z,98666.63
2019-05-05T01:08:28.622Z,98668.25
2019-05-05T01:10:58.632Z,98655.17
2019-05-05T01:13:27.882Z,98655.17
2019-05-05T01:15:57.168Z,98672.07
2019-05-05T01:18:27.767Z,98670.57
2019-05-05T01:20:56.916Z,98671.56
2019-05-05T01:23:26.974Z,98664.23
2019-05-05T01:25:56.323Z,98673.75
2019-05-05T01:28:26.047Z,98667.70
2019-05-05T01:30:59.165Z,98671.57
2019-05-05T01:33:44.894Z,98685.86
2019-05-05T01:36:16.506Z,98689.23
2019-05-05T01:41:39.333Z,98688.82
2019-05-05T01:44:08.394Z,98688.38
2019-05-05T01:46:37.386Z,98685.13
2019-05-05T01:49:06.736Z,98690.81
2019-05-05T01:51:35.575Z,98690.81
2019-05-05T01:54:05.178Z,98689.55
2019-05-05T01:56:36.559Z,98687.80
2019-05-05T01:59:05.721Z,98685.24
2019-05-05T02:01:35.227Z,98692.91
2019-05-05T02:04:05.735Z,98690.44
2019-05-05T02:06:38.557Z,98690.16
2019-05-05T02:09:09.766Z,98693.56
2019-05-05T02:11:40.309Z,98691.14
2019-05-05T02:14:09.420Z,98689.87
2019-05-05T02:16:38.529Z,98693.88
2019-05-05T02:19:07.589Z,98693.88
2019-05-05T02:21:36.574Z,98704.38
2019-05-05T02:24:06.129Z,98700.65
2019-05-05T02:26:35.739Z,98700.65
2019-05-05T02:29:16.585Z,98701.52
2019-05-05T02:32:06.201Z,98710.41
2019-05-05T02:34:37.781Z,98710.41
2019-05-05T02:37:05.862Z,98713.34
2019-05-05T02:39:39.286Z,98717.67
2019-05-05T02:42:07.401Z,98718.65
2019-05-05T02:44:39.060Z,98721.37
2019-05-05T02:47:25.660Z,98729.62
2019-05-05T02:49:59.293Z,98723.09
2019-05-05T02:52:30.432Z,98720.97
2019-05-05T02:55:00.886Z,98723.71
2019-05-05T02:57:29.941Z,98727.09
2019-05-05T03:00:13.402Z,98720.81
2019-05-05T03:02:43.442Z,98732.28
2019-05-05T03:05:14.312Z,98726.66
2019-05-05T03:07:44.858Z,98724.22
2019-05-05T03:10:14.607Z,98722.83
2019-05-05T03:12:44.418Z,98730.12
2019-05-05T03:15:34.000Z,98730.12
2019-05-05T03:18:04.156Z,98740.65
2019-05-05T03:20:34.336Z,98738.62
2019-05-05T03:23:04.231Z,98751.33
2019-05-05T03:25:33.903Z,98747.80
2019-05-05T03:28:04.421Z,98747.09
2019-05-05T03:30:35.628Z,98749.89
2019-05-05T03:33:05.693Z,98749.89
2019-05-05T03:35:35.587Z,98754.58
2019-05-05T03:38:04.965Z,98747.62
2019-05-05T03:40:36.611Z,98747.62
2019-05-05T03:43:12.141Z,98749.20
2019-05-05T03:45:45.563Z,98749.20
2019-05-05T03:48:14.944Z,98749.62
2019-05-05T03:50:44.626Z,98749.62
2019-05-05T03:53:14.030Z,98752.90
2019-05-05T03:55:45.442Z,98751.11
2019-05-05T03:58:15.749Z,98757.45
2019-05-05T04:01:37.292Z,98757.45
2019-05-05T04:04:25.897Z,98756.17
2019-05-05T04:06:55.605Z,98752.69
2019-05-05T04:09:24.934Z,98750.45
2019-05-05T04:11:54.171Z,98750.45
2019-05-05T04:14:25.001Z,98743.71
2019-05-05T04:17:14.156Z,98750.05
2019-05-05T04:19:47.426Z,98754.82
2019-05-05T04:22:16.422Z,98750.70
2019-05-05T04:24:45.504Z,98750.05
2019-05-05T04:27:14.827Z,98752.05
2019-05-05T04:29:44.134Z,98752.05
2019-05-05T04:32:14.031Z,98757.89
2019-05-05T04:34:44.047Z,98755.34
2019-05-05T04:37:14.980Z,98758.81
2019-05-05T04:39:44.643Z,98755.64
2019-05-05T04:42:14.081Z,98763.59
2019-05-05T04:44:46.490Z,98760.18
2019-05-05T04:47:23.666Z,98767.06
2019-05-05T04:49:59.002Z,98767.59
2019-05-05T04:52:28.571Z,98766.98
2019-05-05T04:54:57.584Z,98770.02
2019-05-05T04:57:26.715Z,98773.44
2019-05-05T04:59:55.045Z,98773.44
2019-05-05T05:02:35.569Z,98772.38
2019-05-05T05:05:10.471Z,98783.05
2019-05-05T05:07:39.921Z,98779.84
2019-05-05T05:10:09.281Z,98780.66
2019-05-05T05:12:38.533Z,98782.29
2019-05-05T05:15:07.699Z,98782.67
2019-05-05T05:17:44.748Z,98784.71
2019-05-05T05:20:14.121Z,98791.88
2019-05-05T05:22:43.993Z,98799.67
2019-05-05T05:25:13.678Z,98801.97
2019-05-05T05:27:44.325Z,98814.05
2019-05-05T05:30:13.886Z,98811.64
2019-05-05T05:32:44.549Z,98827.60
2019-05-05T05:35:14.076Z,98822.64
2019-05-05T05:37:44.726Z,98825.63
2019-05-05T05:40:20.308Z,98828.86
2019-05-05T05:42:49.725Z,98830.02
2019-05-05T05:45:31.665Z,98829.83
2019-05-05T05:48:11.436Z,98846.75
2019-05-05T05:50:47.312Z,98849.98
2019-05-05T05:53:16.264Z,98856.64
2019-05-05T05:55:45.050Z,98856.64
2019-05-05T05:58:14.207Z,98869.11
2019-05-05T06:00:44.221Z,98865.64
2019-05-05T06:03:14.064Z,98865.22
2019-05-05T06:05:43.720Z,98872.55
2019-05-05T06:08:14.118Z,98872.42
2019-05-05T06:10:44.247Z,98873.09
2019-05-05T06:13:16.871Z,98879.91
2019-05-05T06:15:45.720Z,98879.91
2019-05-05T06:18:14.056Z,98878.31
2019-05-05T06:20:44.559Z,98874.55
2019-05-05T06:23:15.707Z,98871.08
2019-05-05T06:25:44.757Z,98871.08
2019-05-05T06:28:16.009Z,98884.64
2019-05-05T06:30:45.296Z,98892.73
2019-05-05T06:33:14.981Z,98891.27
2019-05-05T06:35:44.404Z,98904.70
2019-05-05T06:38:13.770Z,98910.61
2019-05-05T06:40:53.733Z,98909.81
2019-05-05T06:43:31.658Z,98914.41
2019-05-05T06:46:01.694Z,98910.63
2019-05-05T06:48:31.123Z,98907.24
2019-05-05T06:51:00.513Z,98909.47
2019-05-05T06:53:29.471Z,98922.62
2019-05-05T06:55:58.719Z,98927.75
2019-05-05T06:58:27.034Z,98927.75
2019-05-05T07:00:56.170Z,98923.23
2019-05-05T07:03:29.664Z,98930.83
2019-05-05T07:05:58.249Z,98928.59
2019-05-05T07:08:26.843Z,98934.41
2019-05-05T07:10:55.701Z,98945.38
2019-05-05T07:13:24.475Z,98949.66
2019-05-05T07:15:54.237Z,98948.52
2019-05-05T07:18:24.664Z,98949.19
2019-05-05T07:20:54.488Z,98954.48
2019-05-05T07:23:24.661Z,98963.98
2019-05-05T07:25:54.940Z,98965.55
2019-05-05T07:28:24.060Z,98968.81
2019-05-05T07:30:54.602Z,98972.34
2019-05-05T07:33:23.929Z,98975.44
2019-05-05T07:36:06.148Z,98980.44
2019-05-05T07:38:35.429Z,98993.17
2019-05-05T07:41:04.576Z,98984.41
2019-05-05T07:43:34.525Z,98979.11
2019-05-05T07:47:23.803Z,98984.82
2019-05-05T07:49:53.701Z,98983.79
2019-05-05T07:52:23.780Z,98983.87
2019-05-05T07:54:54.954Z,98996.63
2019-05-05T07:57:24.041Z,99002.09
2019-05-05T07:59:54.056Z,98989.84
2019-05-05T08:02:23.714Z,98991.34
2019-05-05T08:04:54.471Z,98999.47
2019-05-05T08:07:24.750Z,98995.94
2019-05-05T08:09:53.940Z,98995.94
2019-05-05T08:12:24.765Z,99006.75
2019-05-05T08:14:54.091Z,99001.05
2019-05-05T08:17:45.695Z,99003.31
2019-05-05T08:20:20.221Z,98995.63
2019-05-05T08:22:50.010Z,98995.63
2019-05-05T08:25:37.520Z,99003.28
2019-05-05T08:28:14.718Z,98998.76
2019-05-05T08:31:05.317Z,98998.76
2019-05-05T08:33:34.734Z,98995.20
2019-05-05T08:36:04.598Z,98998.59
2019-05-05T08:38:34.836Z,99005.28
2019-05-05T08:41:04.627Z,99008.09
2019-05-05T08:43:34.715Z,99006.41
2019-05-05T08:46:05.867Z,99012.22
2019-05-05T08:48:35.002Z,99009.63
2019-05-05T08:51:04.985Z,99012.50
2019-05-05T08:53:42.506Z,99011.88
2019-05-05T08:56:05.289Z,99004.98
2019-05-05T08:58:34.770Z,99009.94
2019-05-05T09:01:04.524Z,98999.08
2019-05-05T09:03:33.877Z,99007.77
2019-05-05T09:06:04.691Z,99007.77
2019-05-05T09:08:34.718Z,98997.17
2019-05-05T09:11:04.863Z,98999.61
2019-05-05T09:13:34.382Z,99009.39
2019-05-05T09:16:04.044Z,98997.73
2019-05-05T09:18:35.397Z,98997.95
2019-05-05T09:21:05.761Z,98989.31
2019-05-05T09:23:37.136Z,98980.91
2019-05-05T09:26:19.723Z,98990.79
2019-05-05T09:29:08.409Z,98990.19
2019-05-05T09:31:37.811Z,99000.00
2019-05-05T09:34:07.447Z,98998.78
2019-05-05T09:36:37.303Z,98999.14
2019-05-05T09:39:07.104Z,98999.14
2019-05-05T09:41:36.491Z,99000.50
2019-05-05T09:44:05.415Z,99005.41
2019-05-05T09:46:35.072Z,99007.48
2019-05-05T09:49:04.773Z,99004.38
2019-05-05T09:51:34.840Z,99006.94
2019-05-05T09:54:11.932Z,98999.08
2019-05-05T09:56:35.908Z,98999.33
2019-05-05T09:59:04.995Z,98997.81
2019-05-05T10:01:34.317Z,98998.94
2019-05-05T10:04:09.675Z,99004.02
2019-05-05T10:06:40.476Z,99007.16
2019-05-05T10:09:13.613Z,99013.78
2019-05-05T10:11:44.816Z,99002.52
2019-05-05T10:14:14.453Z,99013.86
2019-05-05T10:16:43.301Z,99000.39
2019-05-05T10:19:13.936Z,99004.79
2019-05-05T10:21:44.357Z,99004.84
2019-05-05T10:24:28.622Z,99013.45
2019-05-05T10:26:54.364Z,99017.03
2019-05-05T10:29:23.797Z,99019.31
2019-05-05T10:31:53.930Z,99019.31
2019-05-05T10:34:24.183Z,99027.47
2019-05-05T10:36:53.649Z,99017.45
2019-05-05T10:39:37.405Z,99008.41
2019-05-05T10:42:06.715Z,99008.41
2019-05-05T10:44:36.001Z,99002.39
2019-05-05T10:47:05.302Z,99004.40
2019-05-05T10:49:34.299Z,99000.97
2019-05-05T10:52:03.984Z,99007.45
2019-05-05T10:54:41.607Z,99003.52
2019-05-05T10:57:05.613Z,99001.07
2019-05-05T10:59:34.612Z,98998.27
2019-05-05T11:02:04.859Z,98994.64
2019-05-05T11:04:34.908Z,98989.05
2019-05-05T11:07:04.475Z,98994.10
2019-05-05T11:09:34.317Z,98989.72
2019-05-05T11:12:03.690Z,98994.92
2019-05-05T11:14:33.659Z,98991.17
2019-05-05T11:17:04.194Z,98997.59
2019-05-05T11:19:33.869Z,98989.91
2019-05-05T11:22:03.097Z,98993.70
2019-05-05T11:24:34.469Z,98993.31
2019-05-05T11:27:04.465Z,98999.95
2019-05-05T11:29:36.830Z,98989.61
2019-05-05T11:32:15.292Z,98989.61
2019-05-05T11:34:44.555Z,98991.02
2019-05-05T11:37:16.892Z,99002.58
2019-05-05T11:39:46.887Z,98995.08
2019-05-05T11:42:17.475Z,99001.66
2019-05-05T11:44:47.551Z,99000.47
2019-05-05T11:47:16.032Z,99001.75
2019-05-05T11:49:45.141Z,99010.14
2019-05-05T11:52:14.028Z,99011.47
2019-05-05T11:54:43.894Z,99012.52
2019-05-05T11:57:13.557Z,99008.46
2019-05-05T11:59:41.929Z,99012.68
2019-05-05T12:02:11.066Z,99016.27
2019-05-05T12:04:40.117Z,99017.38
2019-05-05T12:07:09.006Z,99013.66
2019-05-05T12:09:49.449Z,99015.50
2019-05-05T12:12:18.699Z,99014.99
2019-05-05T12:14:48.256Z,99011.84
2019-05-05T12:17:33.758Z,99024.42
2019-05-05T12:20:05.961Z,99026.61
2019-05-05T12:22:34.938Z,99035.53
2019-05-05T12:25:08.575Z,99036.53
2019-05-05T12:27:59.819Z,99024.28
2019-05-05T12:30:29.132Z,99024.28
2019-05-05T12:32:59.048Z,99040.45
2019-05-05T12:35:28.475Z,99027.61
2019-05-05T12:38:01.174Z,99029.17
2019-05-05T12:40:29.941Z,99021.30
2019-05-05T12:42:59.133Z,99017.92
2019-05-05T12:45:30.933Z,99026.80
2019-05-05T12:48:27.024Z,99022.59
2019-05-05T12:50:58.695Z,99015.89
2019-05-05T12:53:28.529Z,99019.80
2019-05-05T12:55:57.604Z,99012.42
2019-05-05T12:58:27.140Z,99011.33
2019-05-05T13:01:06.512Z,99011.33
2019-05-05T13:03:36.977Z,98996.77
2019-05-05T13:06:06.472Z,98996.77
2019-05-05T13:08:35.949Z,99013.03
2019-05-05T13:11:05.650Z,99019.31
2019-05-05T13:13:34.554Z,99023.56
2019-05-05T13:16:04.400Z,99012.55
2019-05-05T13:18:34.040Z,99008.19
2019-05-05T13:21:14.057Z,99002.80
2019-05-05T13:24:04.399Z,99004.67
2019-05-05T13:26:46.466Z,98989.45
2019-05-05T13:29:15.907Z,99002.52
2019-05-05T13:31:46.118Z,99002.52
2019-05-05T13:34:15.542Z,99003.02
2019-05-05T13:36:44.739Z,99000.08
2019-05-05T13:39:14.411Z,99000.08
2019-05-05T13:41:44.898Z,99009.33
2019-05-05T13:44:24.136Z,99001.61
2019-05-05T13:46:54.634Z,99004.16
2019-05-05T13:49:32.902Z,98997.70
2019-05-05T13:52:04.662Z,99000.55
2019-05-05T13:54:33.987Z,99000.28
2019-05-05T13:57:03.867Z,98993.88
2019-05-05T13:59:33.934Z,98990.87
2019-05-05T14:02:03.566Z,98988.42
2019-05-05T14:04:31.861Z,98981.08
2019-05-05T14:07:00.958Z,98983.58
2019-05-05T14:09:30.060Z,98983.91
2019-05-05T14:11:59.105Z,98986.34
2019-05-05T14:14:28.032Z,98998.85
2019-05-05T14:16:57.398Z,98995.82
2019-05-05T14:19:26.447Z,98986.30
2019-05-05T14:21:55.459Z,98992.39
2019-05-05T14:24:44.349Z,98992.29
2019-05-05T14:27:14.464Z,98987.95
2019-05-05T14:29:52.610Z,98980.91
2019-05-05T14:32:24.000Z,98978.84
2019-05-05T14:35:00.871Z,98978.84
2019-05-05T14:37:37.494Z,98976.02
2019-05-05T14:40:07.630Z,98973.66
2019-05-05T14:42:36.686Z,98972.28
2019-05-05T14:45:06.064Z,98972.48
2019-05-05T14:47:36.413Z,98971.47
2019-05-05T14:50:06.626Z,98966.06
2019-05-05T14:52:34.963Z,98958.73
2019-05-05T14:55:05.618Z,98964.95
2019-05-05T14:57:34.266Z,98963.95
2019-05-05T15:00:04.822Z,98961.67
2019-05-05T15:02:34.803Z,98959.17
2019-05-05T15:05:24.428Z,98957.98
2019-05-05T15:08:13.591Z,98962.20
2019-05-05T15:10:47.635Z,98956.63
2019-05-05T15:13:17.118Z,98961.92
2019-05-05T15:15:46.517Z,98961.92
2019-05-05T15:18:15.945Z,98946.42
2019-05-05T15:20:45.120Z,98946.42
2019-05-05T15:23:13.963Z,98953.95
2019-05-05T15:25:44.607Z,98948.33
2019-05-05T15:28:13.973Z,98958.19
2019-05-05T15:30:44.090Z,98959.05
2019-05-05T15:33:14.758Z,98963.96
2019-05-05T15:35:46.500Z,98955.94
2019-05-05T15:38:15.293Z,98952.36
2019-05-05T15:40:47.780Z,98949.73
2019-05-05T15:43:15.653Z,98954.31
2019-05-05T15:45:45.168Z,98955.74
2019-05-05T15:48:14.591Z,98955.74
2019-05-05T15:50:44.289Z,98960.81
2019-05-05T15:53:14.377Z,98960.81
2019-05-05T15:55:43.897Z,98952.73
2019-05-05T15:58:14.181Z,98962.98
2019-05-05T16:00:44.341Z,98966.06
2019-05-05T16:03:13.729Z,98968.44
2019-05-05T16:05:43.650Z,98970.85
2019-05-05T16:08:14.098Z,98973.94
2019-05-05T16:10:46.178Z,98972.81
2019-05-05T16:13:14.668Z,98964.69
2019-05-05T16:16:05.241Z,98957.16
2019-05-05T16:18:48.370Z,98957.16
2019-05-05T16:21:35.842Z,98972.23
2019-05-05T16:24:13.982Z,98972.23
2019-05-05T16:26:43.547Z,98970.12
2019-05-05T16:29:14.805Z,98969.45
2019-05-05T16:31:45.491Z,98969.45
2019-05-05T16:34:14.829Z,98965.81
2019-05-05T16:36:44.467Z,98973.25
2019-05-05T16:39:16.286Z,98980.05
2019-05-05T16:41:44.396Z,98980.05
2019-05-05T16:44:14.133Z,98980.94
2019-05-05T16:46:44.958Z,98982.93
2019-05-05T16:49:15.299Z,98982.93
2019-05-05T16:51:51.440Z,98989.31
2019-05-05T16:54:26.970Z,98988.78
2019-05-05T16:56:56.762Z,98981.75
2019-05-05T16:59:26.031Z,98984.05
2019-05-05T17:01:56.504Z,98987.94
2019-05-05T17:04:26.130Z,98987.13
2019-05-05T17:06:56.033Z,98987.39
2019-05-05T17:09:26.522Z,98983.95
2019-05-05T17:12:08.466Z,98983.53
2019-05-05T17:14:57.824Z,98986.83
2019-05-05T17:17:38.063Z,98990.83
2019-05-05T17:20:13.870Z,98988.98
2019-05-05T17:23:04.536Z,98990.44
2019-05-05T17:25:34.291Z,98999.20
2019-05-05T17:28:04.560Z,98998.64
2019-05-05T17:30:34.154Z,99002.36
2019-05-05T17:33:03.867Z,98999.19
2019-05-05T17:35:34.153Z,99005.20
2019-05-05T17:38:13.734Z,99011.41
2019-05-05T17:41:03.687Z,99009.48
2019-05-05T17:43:55.417Z,99014.91
2019-05-05T17:46:47.515Z,99018.01
2019-05-05T17:49:27.645Z,99016.56
2019-05-05T17:52:04.026Z,99020.20
2019-05-05T17:54:35.986Z,99022.77
2019-05-05T17:57:05.169Z,99021.98
2019-05-05T17:59:34.628Z,99021.34
2019-05-05T18:02:04.805Z,99022.91
2019-05-05T18:04:34.178Z,99023.95
2019-05-05T18:07:31.808Z,99019.43
2019-05-05T18:10:26.408Z,99025.47
2019-05-05T18:13:24.945Z,99032.59
2019-05-05T18:15:57.920Z,99026.11
2019-05-05T18:18:27.454Z,99030.83
2019-05-05T18:20:56.742Z,99032.25
2019-05-05T18:23:25.952Z,99031.98
2019-05-05T18:25:56.056Z,99033.41
2019-05-05T18:28:25.640Z,99036.15
2019-05-05T18:30:54.614Z,99042.23
2019-05-05T18:33:24.679Z,99042.23
2019-05-05T18:35:54.177Z,99040.69
2019-05-05T18:38:23.959Z,99046.88
2019-05-05T18:40:55.151Z,99055.03
2019-05-05T18:43:48.481Z,99054.39
2019-05-05T18:46:18.050Z,99048.69
2019-05-05T18:48:47.308Z,99048.69
2019-05-05T18:51:18.153Z,99063.97
2019-05-05T18:53:48.056Z,99064.80
2019-05-05T18:56:17.483Z,99063.87
2019-05-05T18:58:54.347Z,99064.77
2019-05-05T19:01:42.028Z,99068.33
2019-05-05T19:04:26.458Z,99073.51
2019-05-05T19:07:10.203Z,99072.46
2019-05-05T19:09:51.033Z,99068.05
2019-05-05T19:12:11.295Z,99072.31
2019-05-05T19:14:40.629Z,99080.47
2019-05-05T19:17:09.573Z,99081.00
2019-05-05T19:19:41.725Z,99073.69
2019-05-05T19:22:13.820Z,99073.69
2019-05-05T19:24:44.061Z,99079.95
2019-05-05T19:27:14.214Z,99084.41
2019-05-05T19:31:20.576Z,99088.12
2019-05-05T19:33:49.762Z,99083.87
2019-05-05T19:36:18.748Z,99083.87
2019-05-05T19:38:47.882Z,99085.16
2019-05-05T19:41:17.303Z,99089.61
2019-05-05T19:43:54.833Z,99092.98
2019-05-05T19:46:35.542Z,99093.20
2019-05-05T19:49:14.818Z,99098.83
2019-05-05T19:51:44.646Z,99098.83
2019-05-05T19:54:15.065Z,99101.58
2019-05-05T19:56:45.251Z,99104.63
2019-05-05T19:59:16.362Z,99108.09
2019-05-05T20:01:45.475Z,99105.88
2019-05-05T20:04:15.153Z,99092.13
2019-05-05T20:06:44.617Z,99092.13
2019-05-05T20:09:14.491Z,99104.02
2019-05-05T20:11:43.913Z,99095.59
2019-05-05T20:14:15.085Z,99096.27
2019-05-05T20:17:04.586Z,99096.23
2019-05-05T20:19:44.867Z,99099.75
2019-05-05T20:22:15.307Z,99095.11
2019-05-05T20:24:44.832Z,99096.38
2019-05-05T20:27:14.438Z,99099.06
2019-05-05T20:29:43.978Z,99098.46
2019-05-05T20:32:14.526Z,99101.81
2019-05-05T20:34:55.836Z,99090.06
2019-05-05T20:37:31.037Z,99103.73
2019-05-05T20:40:00.767Z,99102.84
2019-05-05T20:42:28.945Z,99102.23
2019-05-05T20:44:58.116Z,99102.39
2019-05-05T20:47:27.340Z,99097.38
2019-05-05T20:49:56.581Z,99091.38
2019-05-05T20:52:25.586Z,99104.56
2019-05-05T20:54:54.771Z,99104.56
2019-05-05T20:57:24.299Z,99098.60
2019-05-05T20:59:53.572Z,99097.11
2019-05-05T21:02:24.326Z,99095.61
2019-05-05T21:04:54.106Z,99086.98
2019-05-05T21:07:26.459Z,99086.98
2019-05-05T21:09:54.461Z,99092.07
2019-05-05T21:12:24.614Z,99095.56
2019-05-05T21:14:54.055Z,99088.72
2019-05-05T21:17:24.221Z,99084.75
2019-05-05T21:19:53.115Z,99090.30
2019-05-05T21:22:38.608Z,99095.34
2019-05-05T21:25:23.917Z,99093.83
2019-05-05T21:27:53.121Z,99092.32
2019-05-05T21:30:25.290Z,99081.00
2019-05-05T21:32:57.449Z,99088.16
2019-05-05T21:35:27.262Z,99093.40
2019-05-05T21:37:56.011Z,99094.22
2019-05-05T21:40:26.408Z,99090.03
2019-05-05T21:42:55.412Z,99087.38
2019-05-05T21:45:24.663Z,99089.67
2019-05-05T21:47:55.000Z,99092.80
2019-05-05T21:50:30.083Z,99092.80
2019-05-05T21:53:08.387Z,99090.55
2019-05-05T21:55:43.940Z,99093.29
2019-05-05T21:58:24.720Z,99092.95
2019-05-05T22:01:15.441Z,99098.34
2019-05-05T22:03:45.012Z,99095.21
2019-05-05T22:06:14.601Z,99095.21
2019-05-05T22:08:44.594Z,99094.46
2019-05-05T22:11:14.797Z,99097.20
2019-05-05T22:13:44.351Z,99097.20
2019-05-05T22:16:13.852Z,99101.68
2019-05-05T22:18:44.650Z,99105.08
2019-05-05T22:21:35.646Z,99099.34
2019-05-05T22:24:18.496Z,99101.05
2019-05-05T22:26:47.795Z,99101.05
2019-05-05T22:29:17.596Z,99101.25
2019-05-05T22:31:46.824Z,99096.74
2019-05-05T22:34:18.977Z,99096.74
2019-05-05T22:36:48.110Z,99101.77
2019-05-05T22:39:17.347Z,99108.30
2019-05-05T22:41:46.448Z,99109.09
2019-05-05T22:44:15.729Z,99107.45
2019-05-05T22:46:43.898Z,99109.10
2019-05-05T22:49:14.726Z,99094.34
2019-05-05T22:51:44.762Z,99114.80
2019-05-05T22:54:14.964Z,99108.08
2019-05-05T22:56:44.801Z,99108.02
2019-05-05T22:59:14.114Z,99106.44
2019-05-05T23:01:42.993Z,99102.91
2019-05-05T23:04:46.505Z,99105.70
2019-05-05T23:07:31.930Z,99102.42
2019-05-05T23:10:01.059Z,99108.87
2019-05-05T23:12:30.456Z,99109.70
2019-05-05T23:15:00.749Z,99106.18
2019-05-05T23:17:43.782Z,99111.91
2019-05-05T23:21:11.116Z,99116.06
2019-05-05T23:23:55.821Z,99111.72
2019-05-05T23:26:24.598Z,99109.89
2019-05-05T23:28:53.780Z,99116.89
2019-05-05T23:31:24.131Z,99116.89
2019-05-05T23:33:54.836Z,99113.28
2019-05-05T23:36:26.623Z,99114.84
2019-05-05T23:38:56.857Z,99120.66
2019-05-05T23:41:26.800Z,99120.66
2019-05-05T23:43:54.900Z,99121.48
2019-05-05T23:46:25.158Z,99124.06
2019-05-05T23:48:55.538Z,99121.48
2019-05-05T23:51:24.501Z,99117.52
2019-05-05T23:53:55.097Z,99128.66
2019-05-05T23:56:26.694Z,99125.98
2019-05-05T23:58:55.094Z,99120.88
